createdAt,value
2018-12-20T00:00:43.751Z,99.99
2018-12-20T00:01:43.512Z,99.99
2018-12-20T00:02:43.566Z,99.99
2018-12-20T00:04:44.256Z,99.99
2018-12-20T00:05:43.688Z,99.99
2018-12-20T00:06:43.702Z,99.99
2018-12-20T00:07:43.600Z,99.99
2018-12-20T00:08:43.699Z,99.99
2018-12-20T00:09:43.665Z,99.99
2018-12-20T00:10:43.660Z,99.99
2018-12-20T00:11:43.656Z,99.99
2018-12-20T00:12:43.807Z,99.99
2018-12-20T00:13:43.700Z,99.99
2018-12-20T00:14:43.710Z,99.99
2018-12-20T00:15:43.720Z,99.99
2018-12-20T00:16:43.774Z,99.99
2018-12-20T00:17:43.761Z,99.99
2018-12-20T00:18:43.757Z,99.99
2018-12-20T00:19:43.777Z,99.99
2018-12-20T00:20:43.829Z,99.99
2018-12-20T00:21:43.800Z,99.99
2018-12-20T00:22:43.846Z,99.99
2018-12-20T00:23:43.824Z,99.99
2018-12-20T00:24:43.869Z,99.99
2018-12-20T00:25:43.887Z,99.99
2018-12-20T00:26:43.909Z,99.99
2018-12-20T00:27:43.934Z,99.99
2018-12-20T00:28:43.906Z,99.99
2018-12-20T00:29:44.052Z,99.99
2018-12-20T00:30:43.949Z,99.99
2018-12-20T00:31:44.002Z,99.99
2018-12-20T00:32:43.962Z,99.99
2018-12-20T00:33:44.147Z,99.99
2018-12-20T00:34:44.011Z,99.99
2018-12-20T00:35:44.111Z,99.99
2018-12-20T00:36:44.127Z,99.99
2018-12-20T00:37:44.094Z,99.99
2018-12-20T00:39:44.058Z,99.99
2018-12-20T00:40:44.099Z,99.99
2018-12-20T00:41:44.182Z,99.99
2018-12-20T00:42:44.125Z,99.99
2018-12-20T00:43:44.161Z,99.84
2018-12-20T00:44:44.133Z,99.99
2018-12-20T00:45:44.252Z,99.99
2018-12-20T00:46:44.258Z,99.99
2018-12-20T00:47:44.312Z,99.99
2018-12-20T00:49:44.372Z,99.99
2018-12-20T00:50:44.238Z,99.99
2018-12-20T00:51:44.236Z,99.99
2018-12-20T00:52:44.248Z,99.99
2018-12-20T00:53:44.365Z,99.99
2018-12-20T00:54:44.319Z,99.99
2018-12-20T00:55:44.289Z,99.99
2018-12-20T00:56:44.309Z,99.99
2018-12-20T00:57:44.423Z,99.99
2018-12-20T00:58:44.334Z,99.99
2018-12-20T00:59:44.430Z,99.99
2018-12-20T01:00:44.382Z,99.99
2018-12-20T01:01:44.501Z,99.99
2018-12-20T01:02:44.417Z,99.99
2018-12-20T01:03:44.582Z,99.99
2018-12-20T01:04:44.499Z,99.99
2018-12-20T01:05:44.491Z,99.99
2018-12-20T01:06:44.475Z,99.99
2018-12-20T01:08:05.578Z,99.99
2018-12-20T01:08:44.624Z,99.99
2018-12-20T01:09:44.494Z,99.99
2018-12-20T01:10:44.540Z,99.99
2018-12-20T01:11:44.546Z,99.99
2018-12-20T01:12:44.649Z,99.99
2018-12-20T01:13:44.557Z,99.99
2018-12-20T01:14:45.471Z,99.99
2018-12-20T01:15:44.581Z,99.99
2018-12-20T01:16:44.701Z,99.99
2018-12-20T01:17:44.612Z,99.99
2018-12-20T01:18:44.627Z,99.99
2018-12-20T01:19:44.643Z,99.99
2018-12-20T01:20:44.669Z,99.99
2018-12-20T01:22:44.688Z,99.99
2018-12-20T01:23:44.723Z,99.99
2018-12-20T01:24:44.808Z,99.99
2018-12-20T01:25:44.738Z,99.99
2018-12-20T01:26:44.759Z,99.99
2018-12-20T01:27:44.758Z,99.99
2018-12-20T01:28:44.769Z,99.99
2018-12-20T01:29:44.855Z,99.99
2018-12-20T01:30:44.913Z,99.99
2018-12-20T01:31:44.825Z,99.99
2018-12-20T01:32:44.915Z,99.99
2018-12-20T01:34:44.990Z,99.99
2018-12-20T01:35:44.869Z,99.99
2018-12-20T01:36:44.888Z,99.99
2018-12-20T01:37:44.901Z,99.99
2018-12-20T01:38:44.949Z,99.99
2018-12-20T01:39:44.951Z,99.99
2018-12-20T01:40:44.974Z,99.99
2018-12-20T01:41:45.060Z,99.99
2018-12-20T01:42:44.981Z,99.99
2018-12-20T01:43:45.058Z,99.99
2018-12-20T01:44:45.050Z,99.99
2018-12-20T01:45:45.020Z,99.99
2018-12-20T01:46:45.176Z,99.99
2018-12-20T01:47:45.044Z,99.99
2018-12-20T01:48:45.260Z,99.99
2018-12-20T01:49:45.253Z,99.99
2018-12-20T01:50:45.085Z,99.99
2018-12-20T01:51:45.169Z,99.99
2018-12-20T01:52:45.143Z,99.99
2018-12-20T01:53:45.165Z,99.99
2018-12-20T01:54:45.155Z,99.99
2018-12-20T01:56:45.185Z,99.99
2018-12-20T01:57:45.224Z,99.99
2018-12-20T01:58:45.327Z,99.99
2018-12-20T01:59:45.212Z,99.99
2018-12-20T02:00:45.231Z,99.99
2018-12-20T02:02:45.454Z,99.99
2018-12-20T02:03:45.357Z,99.84
2018-12-20T02:04:45.292Z,99.99
2018-12-20T02:05:45.441Z,99.74
2018-12-20T02:06:45.331Z,99.84
2018-12-20T02:07:45.339Z,99.74
2018-12-20T02:08:45.362Z,99.99
2018-12-20T02:09:45.387Z,99.74
2018-12-20T02:10:45.383Z,99.16
2018-12-20T02:11:45.421Z,99.07
2018-12-20T02:12:45.417Z,99.45
2018-12-20T02:13:45.450Z,99.26
2018-12-20T02:14:45.596Z,99.45
2018-12-20T02:15:45.454Z,99.64
2018-12-20T02:16:45.497Z,99.26
2018-12-20T02:17:45.542Z,99.16
2018-12-20T02:18:45.487Z,99.26
2018-12-20T02:19:45.592Z,99.16
2018-12-20T02:20:45.516Z,99.64
2018-12-20T02:21:45.554Z,99.74
2018-12-20T02:22:45.549Z,99.16
2018-12-20T02:23:45.562Z,99.26
2018-12-20T02:24:45.754Z,99.26
2018-12-20T02:26:45.716Z,99.45
2018-12-20T02:27:45.791Z,99.74
2018-12-20T02:28:45.638Z,99.99
2018-12-20T02:29:45.700Z,99.99
2018-12-20T02:30:45.689Z,99.07
2018-12-20T02:31:46.116Z,99.45
2018-12-20T02:32:45.834Z,99.45
2018-12-20T02:33:45.776Z,99.45
2018-12-20T02:34:45.725Z,99.84
2018-12-20T02:35:45.791Z,99.55
2018-12-20T02:36:45.973Z,99.55
2018-12-20T02:37:45.765Z,99.07
2018-12-20T02:39:45.797Z,99.26
2018-12-20T02:41:45.969Z,98.88
2018-12-20T02:42:45.930Z,98.88
2018-12-20T02:43:45.850Z,98.60
2018-12-20T02:44:45.864Z,98.88
2018-12-20T02:45:46.064Z,99.36
2018-12-20T02:46:45.894Z,99.26
2018-12-20T02:47:45.963Z,98.88
2018-12-20T02:48:45.945Z,99.26
2018-12-20T02:49:45.943Z,98.41
2018-12-20T02:50:45.953Z,98.79
2018-12-20T02:51:45.979Z,99.07
2018-12-20T02:52:46.030Z,99.07
2018-12-20T02:53:46.035Z,98.60
2018-12-20T02:54:46.183Z,99.45
2018-12-20T02:55:46.036Z,99.84
2018-12-20T02:56:46.355Z,99.99
2018-12-20T02:57:46.211Z,99.99
2018-12-20T02:58:46.073Z,99.99
2018-12-20T02:59:46.081Z,99.74
2018-12-20T03:00:46.257Z,99.99
2018-12-20T03:01:46.244Z,99.99
2018-12-20T03:02:46.284Z,99.99
2018-12-20T03:03:46.229Z,99.99
2018-12-20T03:04:46.270Z,99.99
2018-12-20T03:05:46.500Z,99.99
2018-12-20T03:06:46.261Z,99.99
2018-12-20T03:07:46.384Z,99.99
2018-12-20T03:08:46.250Z,99.93
2018-12-20T03:09:46.500Z,99.26
2018-12-20T03:10:46.591Z,99.16
2018-12-20T03:11:46.281Z,99.84
2018-12-20T03:12:46.467Z,99.99
2018-12-20T03:13:46.411Z,99.99
2018-12-20T03:14:46.383Z,99.99
2018-12-20T03:15:46.512Z,99.99
2018-12-20T03:16:46.337Z,99.99
2018-12-20T03:17:46.516Z,99.99
2018-12-20T03:18:46.485Z,99.93
2018-12-20T03:19:46.388Z,99.55
2018-12-20T03:20:46.435Z,99.93
2018-12-20T03:21:46.530Z,99.45
2018-12-20T03:22:46.697Z,99.45
2018-12-20T03:23:46.490Z,99.74
2018-12-20T03:24:46.528Z,99.55
2018-12-20T03:25:46.466Z,99.36
2018-12-20T03:26:46.539Z,98.79
2018-12-20T03:27:46.767Z,98.41
2018-12-20T03:28:46.517Z,99.07
2018-12-20T03:29:46.591Z,99.07
2018-12-20T03:30:46.540Z,98.60
2018-12-20T03:31:46.562Z,98.97
2018-12-20T03:32:46.585Z,98.69
2018-12-20T03:33:46.603Z,99.16
2018-12-20T03:34:46.709Z,99.07
2018-12-20T03:35:46.620Z,98.79
2018-12-20T03:36:46.837Z,98.60
2018-12-20T03:37:46.686Z,98.88
2018-12-20T03:38:46.865Z,98.69
2018-12-20T03:40:46.868Z,98.22
2018-12-20T03:41:46.969Z,98.03
2018-12-20T03:42:46.852Z,98.97
2018-12-20T03:43:46.810Z,98.41
2018-12-20T03:44:47.002Z,98.97
2018-12-20T03:45:46.780Z,98.79
2018-12-20T03:46:47.007Z,99.07
2018-12-20T03:47:46.988Z,98.88
2018-12-20T03:48:46.955Z,98.88
2018-12-20T03:49:47.003Z,98.88
2018-12-20T03:50:46.834Z,99.36
2018-12-20T03:51:46.864Z,98.79
2018-12-20T03:52:46.878Z,99.16
2018-12-20T03:53:47.015Z,98.88
2018-12-20T03:54:47.104Z,98.60
2018-12-20T03:55:47.240Z,99.07
2018-12-20T03:56:46.955Z,98.97
2018-12-20T03:57:47.040Z,99.07
2018-12-20T03:58:47.055Z,98.60
2018-12-20T03:59:46.992Z,98.97
2018-12-20T04:00:47.034Z,98.88
2018-12-20T04:01:47.297Z,99.16
2018-12-20T04:02:47.017Z,99.07
2018-12-20T04:03:47.230Z,98.69
2018-12-20T04:04:47.388Z,98.88
2018-12-20T04:05:47.141Z,99.07
2018-12-20T04:06:47.286Z,98.69
2018-12-20T04:07:47.228Z,98.97
2018-12-20T04:08:47.182Z,99.07
2018-12-20T04:09:47.120Z,98.60
2018-12-20T04:10:47.126Z,99.07
2018-12-20T04:11:47.151Z,98.97
2018-12-20T04:12:47.270Z,98.60
2018-12-20T04:13:47.229Z,98.31
2018-12-20T04:14:47.414Z,98.69
2018-12-20T04:15:47.234Z,98.69
2018-12-20T04:16:47.431Z,98.79
2018-12-20T04:17:47.630Z,98.69
2018-12-20T04:18:47.278Z,98.79
2018-12-20T04:19:47.278Z,99.07
2018-12-20T04:20:47.393Z,98.97
2018-12-20T04:22:47.306Z,98.97
2018-12-20T04:23:47.452Z,99.07
2018-12-20T04:24:47.336Z,99.16
2018-12-20T04:25:47.558Z,99.16
2018-12-20T04:26:47.364Z,99.16
2018-12-20T04:27:47.383Z,99.07
2018-12-20T04:28:47.449Z,99.26
2018-12-20T04:29:47.668Z,99.64
2018-12-20T04:31:47.633Z,98.88
2018-12-20T04:32:47.630Z,99.07
2018-12-20T04:33:47.483Z,98.60
2018-12-20T04:35:47.515Z,99.36
2018-12-20T04:36:47.557Z,98.50
2018-12-20T04:37:47.630Z,98.31
2018-12-20T04:38:47.542Z,98.27
2018-12-20T04:39:47.760Z,98.46
2018-12-20T04:40:47.592Z,98.27
2018-12-20T04:42:47.882Z,98.17
2018-12-20T04:43:47.670Z,98.22
2018-12-20T04:44:47.655Z,97.74
2018-12-20T04:45:47.667Z,97.60
2018-12-20T04:46:47.657Z,97.22
2018-12-20T04:47:47.675Z,97.31
2018-12-20T04:48:47.809Z,97.41
2018-12-20T04:49:47.859Z,97.31
2018-12-20T04:51:47.787Z,96.74
2018-12-20T04:52:47.743Z,96.65
2018-12-20T04:53:47.858Z,97.31
2018-12-20T04:54:47.837Z,97.98
2018-12-20T04:55:47.842Z,97.41
2018-12-20T04:56:47.815Z,97.41
2018-12-20T04:57:47.820Z,97.22
2018-12-20T04:58:47.843Z,98.08
2018-12-20T04:59:47.909Z,97.69
2018-12-20T05:00:47.897Z,97.74
2018-12-20T05:01:47.907Z,98.08
2018-12-20T05:02:47.896Z,98.03
2018-12-20T05:03:48.241Z,98.41
2018-12-20T05:04:47.926Z,98.17
2018-12-20T05:05:48.130Z,98.46
2018-12-20T05:06:47.971Z,98.08
2018-12-20T05:07:47.997Z,98.46
2018-12-20T05:08:48.025Z,97.50
2018-12-20T05:09:48.223Z,97.79
2018-12-20T05:10:48.317Z,98.27
2018-12-20T05:11:48.026Z,98.27
2018-12-20T05:12:48.118Z,98.93
2018-12-20T05:13:48.058Z,99.45
2018-12-20T05:14:48.070Z,99.07
2018-12-20T05:15:55.864Z,99.93
2018-12-20T05:16:48.120Z,99.99
2018-12-20T05:17:48.124Z,99.41
2018-12-20T05:18:48.348Z,99.50
2018-12-20T05:19:48.350Z,99.60
2018-12-20T05:20:48.153Z,99.99
2018-12-20T05:21:48.399Z,99.99
2018-12-20T05:23:48.355Z,99.99
2018-12-20T05:24:48.213Z,99.93
2018-12-20T05:25:48.400Z,99.99
2018-12-20T05:26:48.343Z,99.99
2018-12-20T05:27:48.348Z,99.99
2018-12-20T05:28:48.475Z,99.99
2018-12-20T05:29:48.287Z,99.99
2018-12-20T05:30:48.407Z,99.99
2018-12-20T05:31:48.348Z,99.99
2018-12-20T05:32:48.508Z,99.88
2018-12-20T05:33:48.443Z,99.84
2018-12-20T05:34:48.379Z,99.69
2018-12-20T05:35:48.670Z,99.88
2018-12-20T05:36:48.614Z,99.99
2018-12-20T05:37:48.628Z,99.45
2018-12-20T05:38:48.565Z,99.60
2018-12-20T05:39:48.608Z,99.99
2018-12-20T05:40:48.622Z,99.99
2018-12-20T05:41:48.766Z,99.99
2018-12-20T05:42:48.605Z,99.99
2018-12-20T05:43:48.768Z,99.64
2018-12-20T05:44:48.509Z,99.41
2018-12-20T05:45:48.683Z,99.26
2018-12-20T05:46:48.536Z,99.74
2018-12-20T05:47:48.597Z,99.99
2018-12-20T05:48:48.650Z,99.26
2018-12-20T05:49:48.609Z,99.07
2018-12-20T05:50:48.591Z,99.31
2018-12-20T05:51:48.654Z,98.74
2018-12-20T05:52:48.814Z,99.22
2018-12-20T05:53:48.943Z,99.45
2018-12-20T05:54:48.648Z,99.41
2018-12-20T05:55:48.795Z,99.16
2018-12-20T05:56:48.703Z,99.22
2018-12-20T05:57:48.701Z,99.02
2018-12-20T05:58:48.708Z,99.31
2018-12-20T05:59:48.723Z,98.83
2018-12-20T06:00:48.843Z,99.45
2018-12-20T06:01:48.821Z,99.26
2018-12-20T06:02:48.803Z,99.26
2018-12-20T06:03:48.779Z,99.41
2018-12-20T06:04:48.799Z,98.93
2018-12-20T06:05:48.966Z,98.93
2018-12-20T06:06:48.977Z,98.46
2018-12-20T06:07:48.880Z,98.55
2018-12-20T06:08:48.954Z,98.74
2018-12-20T06:09:49.005Z,98.83
2018-12-20T06:10:48.904Z,99.22
2018-12-20T06:11:48.901Z,99.45
2018-12-20T06:12:48.964Z,99.50
2018-12-20T06:13:48.949Z,99.36
2018-12-20T06:14:48.941Z,99.41
2018-12-20T06:15:48.964Z,99.74
2018-12-20T06:16:49.007Z,99.99
2018-12-20T06:17:49.142Z,99.99
2018-12-20T06:18:49.009Z,99.99
2018-12-20T06:19:49.258Z,99.99
2018-12-20T06:20:49.031Z,99.99
2018-12-20T06:21:49.113Z,99.99
2018-12-20T06:22:49.060Z,99.99
2018-12-20T06:23:49.097Z,99.99
2018-12-20T06:24:49.101Z,99.99
2018-12-20T06:25:49.102Z,99.99
2018-12-20T06:26:49.120Z,99.69
2018-12-20T06:27:49.129Z,99.99
2018-12-20T06:28:49.153Z,99.99
2018-12-20T06:29:49.160Z,99.98
2018-12-20T06:30:49.173Z,99.79
2018-12-20T06:31:49.187Z,99.79
2018-12-20T06:32:49.208Z,99.98
2018-12-20T06:33:49.220Z,99.99
2018-12-20T06:34:49.231Z,99.99
2018-12-20T06:35:49.256Z,99.99
2018-12-20T06:36:49.303Z,99.64
2018-12-20T06:37:49.288Z,99.74
2018-12-20T06:38:49.296Z,99.93
2018-12-20T06:39:49.314Z,99.98
2018-12-20T06:40:49.351Z,99.50
2018-12-20T06:41:49.347Z,98.93
2018-12-20T06:42:49.351Z,98.83
2018-12-20T06:43:49.368Z,98.65
2018-12-20T06:44:49.377Z,98.83
2018-12-20T06:45:49.392Z,98.83
2018-12-20T06:46:49.405Z,99.22
2018-12-20T06:47:49.423Z,98.46
2018-12-20T06:48:49.447Z,99.02
2018-12-20T06:49:49.450Z,99.12
2018-12-20T06:50:49.473Z,98.65
2018-12-20T06:52:49.501Z,99.41
2018-12-20T06:53:49.507Z,98.93
2018-12-20T06:54:49.522Z,98.74
2018-12-20T06:55:49.543Z,98.74
2018-12-20T06:56:49.554Z,99.12
2018-12-20T06:57:49.573Z,98.27
2018-12-20T06:58:49.583Z,99.02
2018-12-20T07:00:49.618Z,98.93
2018-12-20T07:01:49.626Z,98.83
2018-12-20T07:03:49.652Z,99.12
2018-12-20T07:04:49.668Z,98.93
2018-12-20T07:05:49.682Z,98.55
2018-12-20T07:06:49.710Z,98.46
2018-12-20T07:07:49.721Z,98.17
2018-12-20T07:08:49.847Z,98.36
2018-12-20T07:09:49.750Z,97.69
2018-12-20T07:10:49.757Z,97.88
2018-12-20T07:11:49.781Z,97.41
2018-12-20T07:12:49.787Z,97.88
2018-12-20T07:13:49.798Z,97.50
2018-12-20T07:14:49.824Z,98.31
2018-12-20T07:15:49.832Z,98.17
2018-12-20T07:16:49.845Z,97.98
2018-12-20T07:17:49.862Z,97.50
2018-12-20T07:18:49.876Z,97.22
2018-12-20T07:19:49.888Z,97.41
2018-12-20T07:20:49.910Z,97.55
2018-12-20T07:21:49.934Z,97.69
2018-12-20T07:22:49.941Z,97.41
2018-12-20T07:23:49.946Z,97.22
2018-12-20T07:24:49.968Z,97.27
2018-12-20T07:25:50.021Z,96.17
2018-12-20T07:26:50.008Z,95.98
2018-12-20T07:27:50.042Z,96.08
2018-12-20T07:28:50.130Z,96.46
2018-12-20T07:29:50.041Z,96.36
2018-12-20T07:30:50.052Z,95.41
2018-12-20T07:31:50.065Z,95.51
2018-12-20T07:32:50.088Z,95.98
2018-12-20T07:33:50.105Z,95.70
2018-12-20T07:34:50.110Z,95.41
2018-12-20T07:35:50.132Z,95.41
2018-12-20T07:36:50.193Z,95.60
2018-12-20T07:37:50.179Z,95.60
2018-12-20T07:38:50.186Z,95.51
2018-12-20T07:39:50.184Z,95.51
2018-12-20T07:40:50.201Z,95.60
2018-12-20T07:42:50.237Z,95.60
2018-12-20T07:43:50.245Z,95.32
2018-12-20T07:44:50.264Z,94.93
2018-12-20T07:45:50.275Z,94.56
2018-12-20T07:46:50.286Z,94.56
2018-12-20T07:47:50.297Z,94.37
2018-12-20T07:48:50.311Z,94.37
2018-12-20T07:49:50.330Z,93.89
2018-12-20T07:50:50.344Z,93.70
2018-12-20T07:51:50.355Z,94.46
2018-12-20T07:52:50.380Z,94.18
2018-12-20T07:53:50.467Z,93.79
2018-12-20T07:54:50.410Z,93.89
2018-12-20T07:55:50.422Z,93.89
2018-12-20T07:56:50.440Z,93.89
2018-12-20T07:57:50.453Z,93.98
2018-12-20T07:58:50.464Z,93.41
2018-12-20T07:59:50.472Z,93.41
2018-12-20T08:00:50.512Z,93.23
2018-12-20T08:01:50.499Z,93.41
2018-12-20T08:03:50.529Z,93.23
2018-12-20T08:04:50.547Z,93.04
2018-12-20T08:05:50.574Z,93.70
2018-12-20T08:06:50.600Z,93.32
2018-12-20T08:07:50.611Z,93.70
2018-12-20T08:08:50.614Z,93.32
2018-12-20T08:09:50.628Z,92.84
2018-12-20T08:10:50.679Z,92.65
2018-12-20T08:11:50.662Z,92.27
2018-12-20T08:12:50.666Z,91.89
2018-12-20T08:13:50.680Z,92.18
2018-12-20T08:14:50.705Z,92.08
2018-12-20T08:15:50.800Z,91.89
2018-12-20T08:16:50.756Z,91.22
2018-12-20T08:18:50.756Z,91.08
2018-12-20T08:19:50.774Z,91.08
2018-12-20T08:20:50.784Z,91.08
2018-12-20T08:21:50.829Z,90.99
2018-12-20T08:22:50.810Z,90.80
2018-12-20T08:23:50.831Z,90.70
2018-12-20T08:24:50.850Z,90.42
2018-12-20T08:25:50.861Z,90.51
2018-12-20T08:26:50.881Z,90.03
2018-12-20T08:27:50.895Z,89.84
2018-12-20T08:28:50.899Z,89.89
2018-12-20T08:29:50.941Z,89.80
2018-12-20T08:30:50.945Z,89.94
2018-12-20T08:31:50.948Z,89.80
2018-12-20T08:32:50.974Z,89.27
2018-12-20T08:33:50.996Z,89.37
2018-12-20T08:34:50.988Z,89.42
2018-12-20T08:35:51.006Z,89.37
2018-12-20T08:36:51.026Z,89.75
2018-12-20T08:37:51.036Z,89.65
2018-12-20T08:38:51.078Z,88.56
2018-12-20T08:39:51.072Z,88.79
2018-12-20T08:40:51.100Z,88.70
2018-12-20T08:41:51.095Z,88.60
2018-12-20T08:42:51.119Z,88.51
2018-12-20T08:43:51.126Z,88.51
2018-12-20T08:44:51.142Z,87.85
2018-12-20T08:45:51.151Z,88.04
2018-12-20T08:46:54.437Z,87.94
2018-12-20T08:47:51.199Z,88.13
2018-12-20T08:48:51.208Z,87.85
2018-12-20T08:49:51.217Z,87.75
2018-12-20T08:50:51.241Z,87.65
2018-12-20T08:51:51.241Z,87.37
2018-12-20T08:52:51.263Z,87.65
2018-12-20T08:53:51.277Z,87.85
2018-12-20T08:54:51.289Z,87.75
2018-12-20T08:55:51.309Z,87.56
2018-12-20T08:56:51.333Z,87.37
2018-12-20T08:57:51.339Z,87.37
2018-12-20T08:58:51.349Z,87.08
2018-12-20T08:59:51.363Z,87.56
2018-12-20T09:00:51.376Z,87.08
2018-12-20T09:01:51.394Z,86.70
2018-12-20T09:02:51.414Z,86.90
2018-12-20T09:03:51.421Z,87.08
2018-12-20T09:04:51.434Z,86.90
2018-12-20T09:05:51.451Z,86.51
2018-12-20T09:06:51.503Z,86.70
2018-12-20T09:07:51.486Z,86.04
2018-12-20T09:08:51.538Z,86.04
2018-12-20T09:09:51.531Z,86.42
2018-12-20T09:10:51.541Z,86.32
2018-12-20T09:11:51.550Z,85.94
2018-12-20T09:12:51.553Z,85.94
2018-12-20T09:13:51.594Z,85.94
2018-12-20T09:14:51.586Z,85.94
2018-12-20T09:15:51.603Z,86.22
2018-12-20T09:16:51.634Z,85.85
2018-12-20T09:17:51.634Z,85.94
2018-12-20T09:18:51.651Z,86.04
2018-12-20T09:19:51.726Z,86.04
2018-12-20T09:20:51.675Z,85.56
2018-12-20T09:21:51.693Z,85.37
2018-12-20T09:22:51.715Z,85.75
2018-12-20T09:24:51.763Z,85.94
2018-12-20T09:25:51.770Z,84.89
2018-12-20T09:26:51.789Z,85.47
2018-12-20T09:27:51.778Z,85.47
2018-12-20T09:28:53.263Z,85.18
2018-12-20T09:29:51.820Z,84.99
2018-12-20T09:30:51.825Z,85.08
2018-12-20T09:31:51.848Z,85.18
2018-12-20T09:32:51.861Z,85.03
2018-12-20T09:33:51.884Z,84.75
2018-12-20T09:34:51.889Z,84.42
2018-12-20T09:35:51.905Z,84.42
2018-12-20T09:36:51.932Z,84.80
2018-12-20T09:37:51.938Z,84.33
2018-12-20T09:38:51.951Z,84.70
2018-12-20T09:39:52.031Z,84.04
2018-12-20T09:40:51.986Z,83.75
2018-12-20T09:41:52.002Z,84.04
2018-12-20T09:42:52.017Z,83.94
2018-12-20T09:43:52.026Z,84.23
2018-12-20T09:44:52.055Z,83.75
2018-12-20T09:45:52.067Z,84.08
2018-12-20T09:46:52.072Z,84.04
2018-12-20T09:47:52.096Z,83.70
2018-12-20T09:48:52.117Z,83.94
2018-12-20T09:49:52.154Z,83.98
2018-12-20T09:50:52.133Z,83.41
2018-12-20T09:51:52.154Z,83.61
2018-12-20T09:52:52.172Z,83.98
2018-12-20T09:53:52.241Z,83.70
2018-12-20T09:54:52.223Z,83.22
2018-12-20T09:55:52.236Z,82.65
2018-12-20T09:56:52.224Z,83.18
2018-12-20T09:57:52.245Z,83.13
2018-12-20T09:58:52.259Z,82.84
2018-12-20T09:59:52.267Z,83.13
2018-12-20T10:00:52.292Z,83.22
2018-12-20T10:01:52.307Z,82.84
2018-12-20T10:02:52.331Z,82.84
2018-12-20T10:03:52.366Z,82.65
2018-12-20T10:04:52.354Z,82.65
2018-12-20T10:05:52.372Z,82.93
2018-12-20T10:06:52.378Z,82.46
2018-12-20T10:07:52.398Z,82.27
2018-12-20T10:08:52.409Z,82.18
2018-12-20T10:09:52.468Z,82.08
2018-12-20T10:10:52.433Z,81.70
2018-12-20T10:11:52.456Z,81.79
2018-12-20T10:12:52.484Z,82.08
2018-12-20T10:13:52.493Z,81.79
2018-12-20T10:14:52.500Z,82.18
2018-12-20T10:15:52.567Z,82.18
2018-12-20T10:17:52.545Z,82.18
2018-12-20T10:18:52.559Z,81.79
2018-12-20T10:19:52.572Z,81.79
2018-12-20T10:20:52.595Z,82.08
2018-12-20T10:21:52.643Z,82.56
2018-12-20T10:22:52.619Z,81.89
2018-12-20T10:23:52.639Z,82.56
2018-12-20T10:24:52.659Z,82.99
2018-12-20T10:25:52.677Z,82.42
2018-12-20T10:26:52.685Z,83.18
2018-12-20T10:27:52.694Z,83.41
2018-12-20T10:28:52.713Z,83.89
2018-12-20T10:29:52.726Z,83.32
2018-12-20T10:30:52.768Z,83.13
2018-12-20T10:31:52.770Z,83.13
2018-12-20T10:32:52.803Z,84.36
2018-12-20T10:33:52.796Z,84.36
2018-12-20T10:34:52.888Z,83.85
2018-12-20T10:35:52.817Z,84.61
2018-12-20T10:36:52.829Z,84.80
2018-12-20T10:37:52.866Z,84.61
2018-12-20T10:38:52.870Z,84.89
2018-12-20T10:39:52.886Z,84.42
2018-12-20T10:40:52.895Z,84.52
2018-12-20T10:41:52.907Z,84.80
2018-12-20T10:42:52.924Z,85.18
2018-12-20T10:44:52.957Z,85.08
2018-12-20T10:45:52.977Z,85.66
2018-12-20T10:46:52.987Z,86.22
2018-12-20T10:47:53.000Z,86.22
2018-12-20T10:48:53.031Z,86.32
2018-12-20T10:49:53.183Z,86.70
2018-12-20T10:50:53.063Z,86.80
2018-12-20T10:51:53.061Z,87.08
2018-12-20T10:53:53.154Z,86.90
2018-12-20T10:54:53.113Z,86.51
2018-12-20T10:55:53.128Z,86.61
2018-12-20T10:56:53.153Z,86.99
2018-12-20T10:57:53.153Z,86.99
2018-12-20T10:58:53.217Z,87.08
2018-12-20T10:59:53.210Z,86.99
2018-12-20T11:00:53.201Z,87.08
2018-12-20T11:01:53.222Z,87.18
2018-12-20T11:02:53.270Z,86.99
2018-12-20T11:03:53.278Z,86.90
2018-12-20T11:04:53.259Z,86.99
2018-12-20T11:05:53.281Z,86.80
2018-12-20T11:06:53.294Z,86.70
2018-12-20T11:07:53.314Z,87.08
2018-12-20T11:08:53.323Z,86.90
2018-12-20T11:09:53.335Z,86.90
2018-12-20T11:10:53.355Z,86.75
2018-12-20T11:11:53.368Z,87.08
2018-12-20T11:12:53.386Z,86.80
2018-12-20T11:13:53.394Z,87.51
2018-12-20T11:14:53.523Z,87.37
2018-12-20T11:15:53.422Z,87.37
2018-12-20T11:16:53.445Z,87.56
2018-12-20T11:17:53.499Z,87.85
2018-12-20T11:19:53.497Z,87.75
2018-12-20T11:20:53.502Z,88.18
2018-12-20T11:21:53.555Z,88.04
2018-12-20T11:22:53.557Z,88.79
2018-12-20T11:23:53.546Z,88.51
2018-12-20T11:24:53.565Z,88.60
2018-12-20T11:25:53.577Z,88.99
2018-12-20T11:26:53.593Z,88.79
2018-12-20T11:27:53.613Z,88.89
2018-12-20T11:28:53.648Z,88.75
2018-12-20T11:29:53.640Z,88.99
2018-12-20T11:30:53.653Z,89.37
2018-12-20T11:31:53.668Z,89.56
2018-12-20T11:32:53.693Z,90.80
2018-12-20T11:33:53.707Z,90.42
2018-12-20T11:34:53.890Z,90.99
2018-12-20T11:35:53.737Z,91.27
2018-12-20T11:36:53.777Z,91.75
2018-12-20T11:37:53.765Z,91.84
2018-12-20T11:38:53.787Z,91.65
2018-12-20T11:39:59.459Z,92.99
2018-12-20T11:40:54.738Z,92.03
2018-12-20T11:41:53.877Z,92.03
2018-12-20T11:42:53.867Z,92.41
2018-12-20T11:44:53.908Z,92.41
2018-12-20T11:45:53.955Z,92.70
2018-12-20T11:46:53.912Z,92.79
2018-12-20T11:47:53.990Z,92.79
2018-12-20T11:48:53.954Z,93.08
2018-12-20T11:49:53.968Z,93.37
2018-12-20T11:50:53.957Z,93.27
2018-12-20T11:51:54.008Z,92.79
2018-12-20T11:52:54.010Z,93.08
2018-12-20T11:53:54.007Z,92.79
2018-12-20T11:54:54.371Z,92.79
2018-12-20T11:55:54.116Z,92.60
2018-12-20T11:56:54.060Z,92.99
2018-12-20T11:57:54.065Z,92.70
2018-12-20T11:58:54.088Z,93.37
2018-12-20T11:59:54.104Z,93.94
2018-12-20T12:00:54.119Z,93.74
2018-12-20T12:01:54.123Z,93.46
2018-12-20T12:02:54.169Z,93.37
2018-12-20T12:04:54.193Z,93.08
2018-12-20T12:05:54.190Z,93.55
2018-12-20T12:06:54.210Z,93.37
2018-12-20T12:07:54.219Z,94.03
2018-12-20T12:08:54.237Z,93.94
2018-12-20T12:09:54.257Z,94.42
2018-12-20T12:10:54.264Z,94.60
2018-12-20T12:11:54.277Z,94.70
2018-12-20T12:12:54.304Z,93.37
2018-12-20T12:13:54.307Z,92.60
2018-12-20T12:14:54.339Z,92.70
2018-12-20T12:15:54.388Z,92.70
2018-12-20T12:16:54.354Z,92.79
2018-12-20T12:17:54.631Z,92.70
2018-12-20T12:18:54.385Z,92.79
2018-12-20T12:19:54.404Z,92.22
2018-12-20T12:20:54.418Z,91.75
2018-12-20T12:21:54.471Z,92.51
2018-12-20T12:22:54.444Z,91.94
2018-12-20T12:23:54.470Z,91.84
2018-12-20T12:24:54.476Z,92.32
2018-12-20T12:25:54.505Z,92.51
2018-12-20T12:26:54.520Z,92.51
2018-12-20T12:27:54.533Z,92.70
2018-12-20T12:28:54.542Z,92.51
2018-12-20T12:29:54.591Z,92.32
2018-12-20T12:30:54.573Z,92.41
2018-12-20T12:31:54.588Z,91.84
2018-12-20T12:32:54.691Z,91.94
2018-12-20T12:33:54.617Z,92.13
2018-12-20T12:34:54.633Z,91.79
2018-12-20T12:35:54.662Z,91.22
2018-12-20T12:36:54.661Z,91.22
2018-12-20T12:38:54.698Z,91.13
2018-12-20T12:39:54.741Z,91.08
2018-12-20T12:40:54.730Z,91.46
2018-12-20T12:41:54.771Z,91.17
2018-12-20T12:42:54.755Z,91.27
2018-12-20T12:43:54.789Z,91.27
2018-12-20T12:44:54.803Z,91.27
2018-12-20T12:45:54.799Z,91.17
2018-12-20T12:46:54.825Z,90.99
2018-12-20T12:48:02.903Z,91.27
2018-12-20T12:48:54.845Z,91.03
2018-12-20T12:49:54.868Z,90.32
2018-12-20T12:50:54.885Z,91.41
2018-12-20T12:51:54.891Z,91.03
2018-12-20T12:52:54.907Z,91.13
2018-12-20T12:53:54.924Z,91.22
2018-12-20T12:54:54.945Z,91.13
2018-12-20T12:55:54.963Z,90.94
2018-12-20T12:56:54.996Z,91.22
2018-12-20T12:57:54.978Z,91.22
2018-12-20T12:58:54.998Z,91.31
2018-12-20T12:59:55.042Z,91.17
2018-12-20T13:00:55.134Z,91.70
2018-12-20T13:01:55.050Z,92.27
2018-12-20T13:02:55.069Z,92.13
2018-12-20T13:03:57.298Z,92.08
2018-12-20T13:04:55.099Z,92.46
2018-12-20T13:05:55.107Z,92.13
2018-12-20T13:06:55.128Z,92.27
2018-12-20T13:07:55.150Z,92.70
2018-12-20T13:08:55.242Z,91.99
2018-12-20T13:09:55.170Z,91.31
2018-12-20T13:10:55.179Z,91.03
2018-12-20T13:11:55.197Z,90.65
2018-12-20T13:12:55.240Z,90.94
2018-12-20T13:13:55.270Z,90.94
2018-12-20T13:14:55.246Z,91.03
2018-12-20T13:15:55.269Z,91.03
2018-12-20T13:16:55.288Z,91.60
2018-12-20T13:17:55.310Z,91.27
2018-12-20T13:18:55.310Z,91.46
2018-12-20T13:19:55.322Z,91.56
2018-12-20T13:20:55.348Z,92.13
2018-12-20T13:22:55.369Z,91.22
2018-12-20T13:23:55.389Z,92.32
2018-12-20T13:24:55.409Z,92.51